Time;durP1;ratioP1;P1;durP2;ratioP2;P2;SDS_P1;SDS_P2;PMS_P1;PMS_P2;Temp;Humidity;BMP_temperature;BMP_pressure;BME280_temperature;BME280_humidity;BME280_pressure;Samples;Min_cycle;Max_cycle;Signal;HPM_P1;HPM_P2
2021/09/04 00:01:02;;;;;;;8.60;3.27;;;;;;;13.76;70.49;100160.36;1771034;81;21228;-55
2021/09/04 00:04:10;;;;;;;6.42;3.47;;;;;;;13.79;70.58;100157.20;1770896;81;21272;-54
2021/09/04 00:07:16;;;;;;;5.87;3.37;;;;;;;13.83;70.73;100140.08;1762585;81;21197;-56
2021/09/04 00:10:23;;;;;;;6.67;2.87;;;;;;;13.89;70.84;100145.31;1770862;80;21259;-55
2021/09/04 00:13:29;;;;;;;6.12;3.37;;;;;;;13.93;70.85;100141.09;1771047;81;21208;-55
2021/09/04 00:16:35;;;;;;;5.33;2.98;;;;;;;13.97;70.90;100141.02;1770700;79;21298;-55
2021/09/04 00:19:44;;;;;;;8.70;3.60;;;;;;;14.02;70.95;100145.36;1770689;81;21209;-55
2021/09/04 00:22:50;;;;;;;5.42;3.40;;;;;;;14.04;70.97;100145.50;1764595;80;21895;-55
2021/09/04 00:25:57;;;;;;;4.97;3.30;;;;;;;14.05;71.03;100149.11;1771392;80;21749;-55
2021/09/04 00:29:03;;;;;;;6.20;3.15;;;;;;;14.07;71.13;100143.72;1771749;80;21733;-55
2021/09/04 00:32:09;;;;;;;5.50;3.37;;;;;;;14.05;71.31;100144.98;1770982;80;21251;-54
2021/09/04 00:35:35;;;;;;;6.58;3.47;;;;;;;14.03;71.44;100144.33;1771572;80;21360;-55
2021/09/04 00:38:42;;;;;;;9.23;3.40;;;;;;;13.98;71.60;100142.20;1778814;80;21313;-54
2021/09/04 00:41:52;;;;;;;9.85;3.45;;;;;;;13.94;71.79;100145.56;1770292;81;21176;-56
2021/09/04 00:44:57;;;;;;;9.65;3.87;;;;;;;13.91;71.98;100145.94;1752458;81;21369;-55
2021/09/04 00:48:10;;;;;;;6.70;3.47;;;;;;;13.86;72.14;100140.22;1770312;81;21219;-55
2021/09/04 00:51:15;;;;;;;;;;;;;;;13.83;72.33;100145.59;1772873;81;21212;-55
2021/09/04 00:54:21;;;;;;;6.92;3.25;;;;;;;13.79;72.51;100148.43;1770206;81;20230;-55
2021/09/04 00:57:30;;;;;;;8.65;3.95;;;;;;;13.75;72.69;100143.55;1769685;81;21195;-54
2021/09/04 01:00:37;;;;;;;9.85;3.77;;;;;;;13.74;72.85;100139.07;1770012;81;21251;-55
2021/09/04 01:03:46;;;;;;;7.42;3.45;;;;;;;13.73;72.92;100136.01;1738523;81;21323;-54
2021/09/04 01:06:52;;;;;;;11.50;4.20;;;;;;;13.73;72.98;100127.75;1728481;81;21882;-54
2021/09/04 01:09:57;;;;;;;7.58;4.30;;;;;;;13.75;72.96;100137.48;1689482;84;21382;-55
2021/09/04 01:13:04;;;;;;;7.92;4.15;;;;;;;13.80;72.89;100132.75;1752643;80;21187;-56
2021/09/04 01:16:09;;;;;;;9.88;3.92;;;;;;;13.84;72.75;100131.31;1757120;81;21791;-55
2021/09/04 01:19:14;;;;;;;10.43;4.05;;;;;;;13.87;72.63;100131.77;1740065;82;21495;-56
2021/09/04 01:22:20;;;;;;;8.65;4.10;;;;;;;13.92;72.47;100135.27;1739029;82;21215;-55
2021/09/04 01:25:33;;;;;;;10.00;4.75;;;;;;;13.95;72.29;100128.84;1747963;80;21222;-55
2021/09/04 01:28:39;;;;;;;8.73;4.42;;;;;;;13.99;72.12;100123.75;1748696;81;21752;-55
2021/09/04 01:31:45;;;;;;;10.43;5.10;;;;;;;14.04;71.91;100128.13;1770668;81;21218;-56
2021/09/04 01:34:49;;;;;;;11.00;4.62;;;;;;;14.08;71.75;100123.93;1747554;81;21257;-55
2021/09/04 01:37:56;;;;;;;7.95;4.33;;;;;;;14.10;71.56;100121.80;1745357;81;21783;-55
2021/09/04 01:41:02;;;;;;;8.75;4.25;;;;;;;14.13;71.41;100128.30;1763920;80;21335;-55
2021/09/04 01:44:07;;;;;;;7.97;4.45;;;;;;;14.14;71.35;100125.34;1773807;79;22170;-54
2021/09/04 01:47:14;;;;;;;10.95;5.08;;;;;;;14.18;71.22;100120.25;1777059;80;21239;-55
2021/09/04 01:50:21;;;;;;;9.88;5.00;;;;;;;14.21;71.17;100111.05;1780872;80;21255;-56
2021/09/04 01:53:26;;;;;;;8.85;4.80;;;;;;;14.26;71.08;100114.59;1780659;80;21355;-55
2021/09/04 01:56:33;;;;;;;8.50;4.67;;;;;;;14.30;70.97;100114.52;1781634;80;21310;-56
2021/09/04 01:59:40;;;;;;;10.93;4.95;;;;;;;14.34;70.85;100114.42;1781310;80;21255;-55
2021/09/04 02:02:45;;;;;;;7.53;5.10;;;;;;;14.36;70.77;100110.94;1762631;80;21326;-56
2021/09/04 02:05:50;;;;;;;8.35;5.10;;;;;;;14.40;70.56;100110.83;1781090;80;21255;-56
2021/09/04 02:08:57;;;;;;;10.18;4.80;;;;;;;14.44;70.38;100117.64;1781632;80;21164;-56
2021/09/04 02:12:02;;;;;;;10.75;5.25;;;;;;;14.47;70.12;100114.47;1781068;80;21337;-55
2021/09/04 02:15:08;;;;;;;9.73;5.00;;;;;;;14.54;69.85;100124.99;1781123;80;21352;-56
2021/09/04 02:18:13;;;;;;;9.03;4.47;;;;;;;14.56;69.58;100115.45;1781114;80;21318;-56
2021/09/04 02:21:20;;;;;;;8.23;4.95;;;;;;;14.60;69.36;100124.98;1781255;80;21177;-56
2021/09/04 02:24:28;;;;;;;9.03;4.90;;;;;;;14.65;69.25;100118.32;1781261;80;21350;-55
2021/09/04 02:27:35;;;;;;;9.53;5.10;;;;;;;14.70;69.13;100114.94;1781236;80;21172;-57
2021/09/04 02:30:41;;;;;;;9.98;5.20;;;;;;;14.73;68.99;100111.80;1781314;80;21224;-56
2021/09/04 02:33:47;;;;;;;9.55;5.05;;;;;;;14.77;68.70;100124.08;1780536;80;21326;-55
2021/09/04 02:36:53;;;;;;;10.63;5.25;;;;;;;14.80;68.68;100109.88;1780340;80;21169;-56
2021/09/04 02:39:59;;;;;;;10.15;5.25;;;;;;;14.82;68.88;100113.28;1770813;80;21788;-56
2021/09/04 02:43:04;;;;;;;25.23;16.93;;;;;;;14.83;69.11;100112.21;1777512;80;21185;-57
2021/09/04 02:46:11;;;;;;;47.38;29.27;;;;;;;14.84;69.31;100113.93;1769930;81;21153;-55
2021/09/04 02:49:18;;;;;;;667.50;455.10;;;;;;;14.82;69.36;100103.12;1777507;80;21756;-55
2021/09/04 02:52:24;;;;;;;193.10;113.65;;;;;;;14.83;69.62;100106.19;1769499;81;21302;-55
2021/09/04 02:55:31;;;;;;;36.00;21.25;;;;;;;14.83;69.87;100106.19;1770145;80;21267;-55
2021/09/04 02:58:36;;;;;;;17.15;10.13;;;;;;;14.83;69.99;100128.75;1770137;81;21188;-56
2021/09/04 03:01:44;;;;;;;10.78;6.17;;;;;;;14.80;70.18;100130.03;1777489;80;21247;-57
2021/09/04 03:04:51;;;;;;;10.32;6.37;;;;;;;14.76;70.43;100127.36;1770087;81;21239;-55
2021/09/04 03:07:58;;;;;;;8.23;5.40;;;;;;;14.73;70.67;100137.42;1769861;81;21787;-55
2021/09/04 03:11:04;;;;;;;11.50;5.37;;;;;;;14.71;70.88;100138.70;1769377;81;21181;-56
2021/09/04 03:14:11;;;;;;;9.33;5.60;;;;;;;14.68;71.10;100148.77;1769528;81;21208;-56
2021/09/04 03:17:17;;;;;;;9.55;5.35;;;;;;;14.66;71.27;100155.86;1769457;81;21205;-55
2021/09/04 03:20:23;;;;;;;11.48;5.92;;;;;;;14.67;71.40;100147.91;1769506;81;21275;-55
2021/09/04 03:23:28;;;;;;;9.78;5.30;;;;;;;14.70;71.48;100157.64;1777326;80;21669;-56
2021/09/04 03:26:34;;;;;;;8.65;5.12;;;;;;;14.72;71.52;100171.55;1777851;80;21189;-56
2021/09/04 03:29:39;;;;;;;10.68;6.03;;;;;;;14.73;71.47;100166.91;1769650;81;21212;-55
2021/09/04 03:32:46;;;;;;;9.75;5.53;;;;;;;14.74;71.56;100161.70;1770163;81;21197;-57
2021/09/04 03:35:53;;;;;;;9.35;5.12;;;;;;;14.74;71.80;100164.45;1777706;80;21350;-55
2021/09/04 03:38:59;;;;;;;9.30;5.53;;;;;;;14.73;72.19;100165.52;1770200;81;21220;-54
2021/09/04 03:42:05;;;;;;;8.48;5.10;;;;;;;14.64;72.42;100168.12;1739708;82;21206;-62
2021/09/04 03:45:13;;;;;;;9.95;6.00;;;;;;;14.59;72.83;100169.27;1706098;84;21301;-54
2021/09/04 03:48:19;;;;;;;15.30;6.20;;;;;;;14.59;73.24;100166.52;1739566;82;21211;-57
2021/09/04 03:51:25;;;;;;;9.33;5.67;;;;;;;14.59;73.56;100167.89;1706190;84;21225;-57
2021/09/04 03:54:31;;;;;;;12.00;6.08;;;;;;;14.59;73.83;100168.75;1739277;82;21752;-54
2021/09/04 03:57:38;;;;;;;7.78;5.25;;;;;;;14.57;74.12;100200.33;1706125;84;21213;-54
2021/09/04 04:00:43;;;;;;;11.43;5.37;;;;;;;14.54;74.44;100206.25;1739577;82;21183;-55
2021/09/04 04:03:49;;;;;;;9.88;5.97;;;;;;;14.53;74.79;100194.89;1739491;82;21215;-54
2021/09/04 04:06:58;;;;;;;10.98;5.55;;;;;;;14.50;75.04;100198.06;1706289;84;21265;-56
2021/09/04 04:10:05;;;;;;;10.85;5.95;;;;;;;14.49;75.25;100211.52;1739558;82;21234;-56
2021/09/04 04:13:12;;;;;;;9.65;5.62;;;;;;;14.46;75.35;100209.18;1706416;84;21276;-54
2021/09/04 04:16:17;;;;;;;8.70;5.33;;;;;;;14.45;75.52;100221.23;1739629;82;21202;-56
2021/09/04 04:19:26;;;;;;;10.05;5.35;;;;;;;14.44;75.72;100222.30;1739358;82;21798;-56
2021/09/04 04:22:32;;;;;;;9.58;5.67;;;;;;;14.43;75.87;100226.95;1706502;84;21225;-55
2021/09/04 04:25:40;;;;;;;8.28;5.33;;;;;;;14.43;75.95;100219.23;1739196;82;21746;-56
2021/09/04 04:28:46;;;;;;;8.68;5.25;;;;;;;14.44;76.05;100225.05;1706293;84;21243;-55
2021/09/04 04:31:53;;;;;;;10.80;6.50;;;;;;;14.46;76.11;100222.95;1739448;82;21242;-55
2021/09/04 04:35:00;;;;;;;8.18;5.33;;;;;;;14.48;76.12;100229.09;1739154;82;21789;-55
2021/09/04 04:38:08;;;;;;;10.78;5.72;;;;;;;14.53;76.21;100223.81;1706439;84;21281;-54
2021/09/04 04:41:13;;;;;;;10.50;6.17;;;;;;;14.58;76.06;100232.32;1749073;79;21219;-54
2021/09/04 04:44:19;;;;;;;9.38;5.50;;;;;;;14.63;75.97;100233.94;1765576;81;21343;-55
2021/09/04 04:47:28;;;;;;;9.15;5.83;;;;;;;14.68;76.00;100228.66;1765800;81;21437;-54
2021/09/04 04:50:35;;;;;;;12.33;5.97;;;;;;;14.73;75.90;100233.03;1765560;81;21244;-55
2021/09/04 04:53:42;;;;;;;12.33;6.28;;;;;;;14.79;75.85;100237.72;1765365;81;21252;-55
2021/09/04 04:56:49;;;;;;;9.25;5.58;;;;;;;14.84;75.70;100247.59;1766230;81;21352;-56
2021/09/04 04:59:54;;;;;;;11.65;6.17;;;;;;;14.89;75.47;100244.52;1766062;81;21331;-56
2021/09/04 05:03:03;;;;;;;10.98;6.87;;;;;;;14.92;75.24;100244.66;1765774;80;21209;-54
2021/09/04 05:06:10;;;;;;;8.60;5.05;;;;;;;14.95;75.19;100258.03;1765686;81;21746;-54
2021/09/04 05:09:15;;;;;;;9.68;6.12;;;;;;;14.98;75.11;100256.23;1766256;81;21351;-55
2021/09/04 05:12:22;;;;;;;10.03;5.92;;;;;;;15.03;74.83;100263.36;1766038;81;21362;-55
2021/09/04 05:15:31;;;;;;;9.65;6.05;;;;;;;15.03;74.84;100264.73;1765481;80;21169;-55
2021/09/04 05:18:39;;;;;;;8.93;5.83;;;;;;;15.07;74.88;100265.14;1765813;81;21229;-56
2021/09/04 05:21:46;;;;;;;8.93;5.42;;;;;;;15.08;74.88;100266.86;1765856;81;21320;-57
2021/09/04 05:24:52;;;;;;;9.43;5.50;;;;;;;15.07;74.78;100264.63;1765407;81;21879;-54
2021/09/04 05:28:01;;;;;;;12.82;6.40;;;;;;;15.12;74.77;100268.99;1765292;81;21338;-56
2021/09/04 05:31:07;;;;;;;8.80;5.55;;;;;;;15.18;74.52;100273.67;1759207;79;21366;-55
2021/09/04 05:34:13;;;;;;;10.32;6.12;;;;;;;15.22;74.24;100276.34;1755654;79;21213;-55
2021/09/04 05:37:20;;;;;;;9.43;6.00;;;;;;;15.31;74.04;100276.47;1764897;81;21189;-56
2021/09/04 05:40:25;;;;;;;9.55;5.75;;;;;;;15.43;73.79;100276.74;1757592;79;21358;-54
2021/09/04 05:43:29;;;;;;;10.10;5.08;;;;;;;15.50;73.38;100278.97;1738405;80;21373;-54
2021/09/04 05:46:35;;;;;;;9.73;5.30;;;;;;;15.56;73.07;100285.88;1741645;82;21891;-56
2021/09/04 05:49:39;;;;;;;8.33;5.35;;;;;;;15.63;72.68;100292.27;1742036;82;21385;-56
2021/09/04 05:52:46;;;;;;;9.23;5.28;;;;;;;15.71;71.79;100296.20;1742102;82;21350;-55
2021/09/04 05:55:52;;;;;;;8.48;5.25;;;;;;;15.76;70.98;100292.80;1741775;82;21358;-54
2021/09/04 05:58:58;;;;;;;9.83;5.03;;;;;;;15.76;70.44;100301.91;1742151;82;21923;-54
2021/09/04 06:02:05;;;;;;;8.18;4.45;;;;;;;15.71;69.64;100297.58;1742138;82;22010;-55
2021/09/04 06:05:12;;;;;;;8.08;4.42;;;;;;;15.68;69.82;100305.43;1742125;82;21342;-55
2021/09/04 06:08:18;;;;;;;7.03;4.55;;;;;;;15.65;69.42;100301.16;1742034;82;21227;-54
2021/09/04 06:11:24;;;;;;;6.47;3.77;;;;;;;15.61;69.40;100310.94;1742093;82;21347;-55
2021/09/04 06:14:31;;;;;;;6.92;4.00;;;;;;;15.60;69.32;100306.45;1742084;82;21200;-56
2021/09/04 06:17:36;;;;;;;6.83;4.00;;;;;;;15.66;69.29;100315.30;1742044;82;21212;-56
2021/09/04 06:20:41;;;;;;;7.83;3.40;;;;;;;15.75;68.97;100312.65;1757945;80;21358;-57
2021/09/04 06:23:47;;;;;;;8.18;3.83;;;;;;;15.82;68.83;100324.56;1771259;80;21940;-55
2021/09/04 06:26:53;;;;;;;7.50;4.37;;;;;;;15.92;68.39;100329.11;1771507;81;21215;-55
2021/09/04 06:29:58;;;;;;;5.72;3.72;;;;;;;16.02;67.83;100340.59;1771518;81;21746;-56
2021/09/04 06:33:04;;;;;;;7.70;3.80;;;;;;;16.05;67.39;100340.17;1771455;81;21180;-57
2021/09/04 06:36:09;;;;;;;6.75;3.60;;;;;;;16.12;67.20;100352.08;1771872;81;21247;-56
2021/09/04 06:39:15;;;;;;;6.25;3.45;;;;;;;16.18;67.00;100347.08;1772274;81;21354;-56
2021/09/04 06:42:21;;;;;;;5.67;3.30;;;;;;;16.27;66.76;100342.17;1745443;81;21244;-57
2021/09/04 06:45:26;;;;;;;5.35;3.22;;;;;;;16.35;66.27;100351.10;1736260;82;21197;-56
2021/09/04 06:48:31;;;;;;;5.37;3.22;;;;;;;16.41;65.48;100356.31;1737881;79;21185;-56
2021/09/04 06:51:37;;;;;;;9.05;2.98;;;;;;;16.53;65.39;100354.63;1750057;82;21908;-55
2021/09/04 06:54:43;;;;;;;3.47;2.37;;;;;;;16.69;64.33;100348.64;1751752;82;21765;-56
2021/09/04 06:57:50;;;;;;;4.62;2.47;;;;;;;16.84;63.69;100366.37;1688152;84;21224;-55
2021/09/04 07:00:58;;;;;;;5.22;2.60;;;;;;;16.92;62.74;100359.22;1695223;84;21426;-56
2021/09/04 07:04:05;;;;;;;3.80;2.33;;;;;;;17.05;62.70;100372.98;1683884;85;21382;-57
2021/09/04 07:07:13;;;;;;;3.92;2.45;;;;;;;17.08;60.96;100374.79;1684192;85;21363;-57
2021/09/04 07:10:20;;;;;;;3.92;2.55;;;;;;;16.93;60.28;100362.30;1684024;85;21899;-55
2021/09/04 07:13:26;;;;;;;3.52;1.90;;;;;;;16.79;60.41;100367.55;1683946;85;21223;-57
2021/09/04 07:16:34;;;;;;;3.83;2.40;;;;;;;16.71;60.87;100367.77;1683893;85;21227;-55
2021/09/04 07:19:40;;;;;;;4.47;2.40;;;;;;;16.73;60.75;100369.80;1696909;84;21390;-56
2021/09/04 07:22:47;;;;;;;5.17;1.80;;;;;;;16.85;60.77;100372.20;1712208;84;21994;-54
2021/09/04 07:25:53;;;;;;;3.65;2.10;;;;;;;17.00;59.43;100371.44;1712888;83;21359;-55
2021/09/04 07:28:59;;;;;;;4.70;2.37;;;;;;;17.07;58.22;100369.48;1712874;84;21426;-55
2021/09/04 07:32:07;;;;;;;3.08;1.95;;;;;;;17.14;58.53;100377.23;1713149;84;21897;-54
2021/09/04 07:35:13;;;;;;;2.60;1.67;;;;;;;17.20;57.78;100370.82;1712979;84;21386;-56
2021/09/04 07:38:21;;;;;;;5.35;2.02;;;;;;;17.22;58.17;100366.75;1716362;83;21872;-54
2021/09/04 07:41:26;;;;;;;3.50;2.10;;;;;;;17.27;57.67;100373.01;1712971;84;21220;-55
2021/09/04 07:44:31;;;;;;;2.90;1.80;;;;;;;17.32;57.13;100368.53;1714011;81;21478;-55
2021/09/04 07:47:37;;;;;;;3.77;2.20;;;;;;;17.40;56.71;100359.12;1694277;83;21314;-55
2021/09/04 07:50:45;;;;;;;2.55;1.55;;;;;;;17.47;55.28;100371.05;1772719;81;21362;-56
2021/09/04 07:53:52;;;;;;;4.35;1.90;;;;;;;17.54;55.03;100369.08;1771427;81;21350;-55
2021/09/04 07:56:59;;;;;;;3.15;1.80;;;;;;;17.63;55.23;100371.92;1771987;81;21348;-56
2021/09/04 08:00:05;;;;;;;2.72;1.87;;;;;;;17.67;54.14;100371.26;1772261;81;21244;-58
2021/09/04 08:03:10;;;;;;;6.55;2.30;;;;;;;17.69;53.44;100368.27;1772510;81;21322;-56
2021/09/04 08:06:16;;;;;;;2.98;1.77;;;;;;;17.67;53.12;100369.88;1772547;80;21434;-55
2021/09/04 08:09:22;;;;;;;4.00;1.67;;;;;;;17.64;53.19;100377.23;1772672;81;21382;-57
2021/09/04 08:12:29;;;;;;;3.67;1.62;;;;;;;17.65;53.01;100377.55;1772271;81;21833;-56
2021/09/04 08:15:34;;;;;;;3.00;1.72;;;;;;;17.75;52.57;100382.08;1772483;81;21903;-56
2021/09/04 08:18:41;;;;;;;1.87;1.17;;;;;;;17.74;51.49;100376.20;1771782;81;21184;-56
2021/09/04 08:21:47;;;;;;;3.10;1.37;;;;;;;17.70;51.40;100381.02;1759694;80;21718;-56
2021/09/04 08:24:54;;;;;;;3.33;1.52;;;;;;;17.72;50.63;100370.59;1741397;82;21771;-56
2021/09/04 08:28:00;;;;;;;2.02;1.27;;;;;;;17.82;50.98;100377.89;1741516;82;21354;-54
2021/09/04 08:31:05;;;;;;;4.10;1.72;;;;;;;17.96;51.31;100372.56;1741727;80;21312;-56
2021/09/04 08:34:13;;;;;;;4.72;1.75;;;;;;;18.01;49.92;100379.67;1741368;82;21477;-56
2021/09/04 08:37:18;;;;;;;3.45;1.62;;;;;;;17.97;50.14;100364.55;1741247;82;21367;-55
2021/09/04 08:40:23;;;;;;;2.27;1.30;;;;;;;17.98;50.39;100369.05;1750578;79;21417;-56
2021/09/04 08:43:29;;;;;;;5.17;1.50;;;;;;;17.96;50.03;100378.63;1740303;82;21268;-56
2021/09/04 08:46:41;;;;;;;2.55;1.50;;;;;;;17.92;50.20;100388.48;1717712;82;21200;-55
2021/09/04 08:49:48;;;;;;;1.50;1.10;;;;;;;17.95;50.26;100391.62;1727177;82;21427;-56
2021/09/04 08:52:54;;;;;;;2.33;1.32;;;;;;;18.00;49.29;100378.52;1727024;82;21224;-55
2021/09/04 08:55:59;;;;;;;2.60;1.10;;;;;;;18.07;48.49;100391.77;1743098;81;21849;-56
2021/09/04 08:59:04;;;;;;;2.83;1.25;;;;;;;18.09;47.92;100382.70;1756118;81;21220;-56
2021/09/04 09:02:09;;;;;;;2.50;1.10;;;;;;;18.02;47.44;100378.59;1755451;81;21177;-56
2021/09/04 09:05:17;;;;;;;2.17;1.35;;;;;;;17.89;47.28;100368.45;1741367;81;21354;-55
2021/09/04 09:08:30;;;;;;;3.20;1.00;;;;;;;17.93;48.24;100376.31;1740024;81;21781;-57
2021/09/04 09:11:39;;;;;;;5.80;1.65;;;;;;;17.97;47.75;100369.23;1755343;81;21174;-56
2021/09/04 09:14:43;;;;;;;2.00;1.20;;;;;;;18.01;47.39;100374.66;1741249;81;21220;-56
2021/09/04 09:17:50;;;;;;;2.67;1.22;;;;;;;18.04;47.02;100379.75;1741510;81;21224;-55
2021/09/04 09:21:08;;;;;;;1.27;0.82;;;;;;;18.12;47.15;100367.01;1757975;81;21208;-55
2021/09/04 09:24:24;;;;;;;4.45;1.20;;;;;;;18.24;47.82;100370.20;1757021;81;21733;-54
2021/09/04 09:27:30;;;;;;;2.45;0.98;;;;;;;18.16;46.57;100373.25;1764587;81;21330;-55
2021/09/04 09:30:50;;;;;;;2.02;1.30;;;;;;;17.87;46.81;100371.11;1757045;81;21248;-56
2021/09/04 09:33:55;;;;;;;1.22;0.80;;;;;;;17.72;46.29;100380.28;1757395;81;21349;-56
2021/09/04 09:37:08;;;;;;;1.70;0.90;;;;;;;17.65;46.46;100383.08;1741812;81;21339;-55
2021/09/04 09:40:14;;;;;;;1.77;0.90;;;;;;;17.73;46.03;100388.89;1749651;81;21339;-56
2021/09/04 09:43:29;;;;;;;1.72;0.90;;;;;;;17.81;45.81;100389.48;1749830;81;21343;-54
2021/09/04 09:46:35;;;;;;;1.15;0.78;;;;;;;17.83;45.44;100396.19;1738455;79;21243;-54
2021/09/04 09:49:45;;;;;;;2.83;0.90;;;;;;;17.80;44.79;100392.48;1771145;81;21441;-55
2021/09/04 09:52:52;;;;;;;1.42;0.80;;;;;;;17.70;45.01;100391.58;1736328;82;21703;-54
2021/09/04 09:55:59;;;;;;;1.62;1.02;;;;;;;17.74;45.46;100393.37;1771544;80;21219;-55
2021/09/04 09:59:07;;;;;;;1.87;1.22;;;;;;;18.03;45.48;100393.30;1771658;81;21192;-54
2021/09/04 10:02:20;;;;;;;1.65;0.90;;;;;;;18.26;44.56;100399.08;1758902;81;21191;-56
2021/09/04 10:05:26;;;;;;;2.25;1.00;;;;;;;18.34;44.39;100402.44;1732301;82;21197;-54
2021/09/04 10:08:32;;;;;;;2.40;1.00;;;;;;;18.34;44.38;100403.82;1739861;82;21725;-55
2021/09/04 10:11:39;;;;;;;2.80;0.93;;;;;;;18.36;44.47;100405.80;1740159;82;21640;-55
2021/09/04 10:14:44;;;;;;;3.62;0.90;;;;;;;18.44;44.50;100406.95;1740511;82;21399;-56
2021/09/04 10:17:53;;;;;;;1.32;0.80;;;;;;;18.52;44.22;100414.98;1740781;82;21180;-54
2021/09/04 10:21:17;;;;;;;2.20;1.05;;;;;;;18.61;43.92;100415.56;1741317;82;21176;-56
2021/09/04 10:24:24;;;;;;;2.50;1.20;;;;;;;18.71;43.63;100410.36;1741735;82;21203;-55
2021/09/04 10:27:43;;;;;;;2.10;1.35;;;;;;;18.67;43.49;100416.89;1741997;82;21855;-53
2021/09/04 10:30:47;;;;;;;2.12;1.22;;;;;;;18.65;43.55;100429.27;1741115;82;21793;-56
2021/09/04 10:33:54;;;;;;;1.50;0.90;;;;;;;18.72;43.78;100432.84;1741340;82;21381;-55
2021/09/04 10:37:11;;;;;;;3.40;1.00;;;;;;;18.83;43.64;100437.65;1743622;81;21315;-55
2021/09/04 10:40:17;;;;;;;1.95;0.98;;;;;;;18.86;43.38;100433.89;1771534;80;21404;-56
2021/09/04 10:43:23;;;;;;;1.92;1.20;;;;;;;18.92;43.14;100426.03;1749695;80;21776;-55
2021/09/04 10:46:30;;;;;;;5.05;1.30;;;;;;;19.01;43.03;100435.74;1741256;82;21402;-55
2021/09/04 10:50:01;;;;;;;3.15;1.10;;;;;;;19.16;43.13;100443.18;1744522;80;21706;-56
2021/09/04 10:53:09;;;;;;;1.50;0.90;;;;;;;19.25;42.85;100450.11;1740221;82;21605;-55
2021/09/04 10:56:32;;;;;;;1.92;0.98;;;;;;;19.16;42.34;100444.56;1740485;82;21189;-55
2021/09/04 11:00:18;;;;;;;3.80;1.12;;;;;;;19.04;42.37;100432.51;1740594;80;21263;-56
2021/09/04 11:03:27;;;;;;;2.00;0.90;;;;;;;19.05;42.59;100438.39;1740991;82;21331;-56
2021/09/04 11:06:33;;;;;;;2.47;1.02;;;;;;;19.04;42.21;100435.28;1741672;82;21832;-55
2021/09/04 11:09:56;;;;;;;2.15;1.00;;;;;;;19.20;41.64;100434.69;1741755;82;21382;-54
2021/09/04 11:13:23;;;;;;;2.08;1.10;;;;;;;19.39;40.81;100429.18;1741707;82;21253;-55
2021/09/04 11:16:42;;;;;;;3.85;1.12;;;;;;;19.51;41.24;100438.42;1741888;82;21358;-56
2021/09/04 11:19:48;;;;;;;2.72;0.95;;;;;;;19.62;40.90;100444.58;1741318;82;21864;-55
2021/09/04 11:22:54;;;;;;;1.80;1.00;;;;;;;19.67;40.91;100439.18;1741424;82;21342;-55
2021/09/04 11:26:00;;;;;;;0.90;0.60;;;;;;;19.64;40.30;100434.09;1755767;79;21172;-56
2021/09/04 11:29:06;;;;;;;2.95;0.80;;;;;;;19.62;40.40;100439.88;1747776;80;21176;-56
2021/09/04 11:32:14;;;;;;;1.22;0.80;;;;;;;19.57;40.02;100441.12;1740172;82;21330;-56
2021/09/04 11:35:20;;;;;;;1.70;1.00;;;;;;;19.56;39.61;100446.38;1722940;82;21235;-55
2021/09/04 11:38:26;;;;;;;2.58;1.00;;;;;;;19.53;39.61;100448.23;1740473;82;21394;-55
2021/09/04 11:41:31;;;;;;;4.25;0.98;;;;;;;19.50;39.61;100457.56;1740886;82;21204;-56
2021/09/04 11:44:36;;;;;;;1.40;0.80;;;;;;;19.40;39.21;100451.16;1723972;82;21270;-55
2021/09/04 11:47:46;;;;;;;2.90;0.78;;;;;;;19.42;39.51;100456.48;1742351;82;21208;-55
2021/09/04 11:50:52;;;;;;;3.50;0.88;;;;;;;19.43;39.02;100450.69;1739203;82;21220;-55
2021/09/04 11:54:11;;;;;;;1.85;0.98;;;;;;;19.45;39.01;100461.04;1740064;82;21231;-54
2021/09/04 11:57:41;;;;;;;1.87;1.05;;;;;;;19.39;38.46;100463.89;1739772;82;21296;-55
2021/09/04 12:00:48;;;;;;;2.92;1.00;;;;;;;19.26;39.03;100464.85;1740026;79;21254;-54
2021/09/04 12:03:55;;;;;;;1.62;0.70;;;;;;;19.29;38.64;100466.67;1739222;82;21259;-55
2021/09/04 12:07:00;;;;;;;1.05;0.70;;;;;;;19.33;38.05;100460.66;1740029;82;21342;-54
2021/09/04 12:10:08;;;;;;;2.12;1.10;;;;;;;19.36;38.97;100460.19;1740090;82;21386;-55
2021/09/04 12:13:17;;;;;;;5.78;1.05;;;;;;;19.54;38.82;100470.75;1740073;81;21224;-55
2021/09/04 12:16:24;;;;;;;2.70;1.02;;;;;;;19.43;38.11;100454.86;1740129;82;21784;-57
2021/09/04 12:19:30;;;;;;;1.95;1.10;;;;;;;19.33;38.59;100466.50;1701160;82;21868;-56
2021/09/04 12:22:39;;;;;;;1.87;0.82;;;;;;;19.17;38.48;100464.29;1740206;82;21176;-56
2021/09/04 12:25:47;;;;;;;1.80;0.95;;;;;;;19.03;38.22;100468.28;1740091;82;21358;-58
2021/09/04 12:28:52;;;;;;;2.10;0.75;;;;;;;18.83;38.78;100466.77;1758277;81;21327;-55
2021/09/04 12:31:58;;;;;;;1.12;0.75;;;;;;;18.72;39.44;100477.22;1744806;79;21208;-56
2021/09/04 12:35:06;;;;;;;3.77;1.50;;;;;;;18.72;39.06;100473.06;1739247;82;21254;-55
2021/09/04 12:38:12;;;;;;;2.60;1.30;;;;;;;18.75;38.70;100479.54;1739194;82;21276;-56
2021/09/04 12:41:24;;;;;;;3.05;1.10;;;;;;;18.76;38.87;100474.29;1739650;82;21216;-56
2021/09/04 12:44:30;;;;;;;1.15;0.70;;;;;;;18.79;38.48;100474.69;1739573;82;21373;-56
2021/09/04 12:47:48;;;;;;;3.75;1.45;;;;;;;18.82;38.69;100468.69;1739955;82;21749;-55
2021/09/04 12:50:53;;;;;;;2.47;1.30;;;;;;;18.85;38.93;100483.48;1740391;80;21530;-56
2021/09/04 12:54:14;;;;;;;2.10;1.30;;;;;;;18.78;38.58;100484.10;1739542;82;21808;-54
2021/09/04 12:57:39;;;;;;;2.90;1.15;;;;;;;18.67;38.66;100484.84;1738772;82;21247;-55
2021/09/04 13:00:45;;;;;;;4.95;2.35;;;;;;;18.61;38.54;100487.66;1738815;82;21247;-55
2021/09/04 13:03:51;;;;;;;2.55;1.05;;;;;;;18.54;38.48;100482.16;1739742;82;21407;-55
2021/09/04 13:07:07;;;;;;;4.00;1.35;;;;;;;18.57;38.56;100484.48;1738891;82;21700;-56
2021/09/04 13:10:13;;;;;;;2.77;1.40;;;;;;;18.60;38.04;100482.64;1743290;79;21633;-55
2021/09/04 13:13:24;;;;;;;2.05;1.05;;;;;;;18.61;37.68;100482.11;1747652;81;21765;-54
2021/09/04 13:16:27;;;;;;;5.17;2.85;;;;;;;18.69;37.77;100486.86;1739680;82;21191;-55
2021/09/04 13:19:32;;;;;;;3.37;1.20;;;;;;;18.70;37.16;100487.16;1743449;79;21196;-55
2021/09/04 13:22:39;;;;;;;5.92;3.27;;;;;;;18.78;37.56;100492.42;1753976;79;21318;-55
2021/09/04 13:25:46;;;;;;;3.40;1.55;;;;;;;18.90;37.59;100490.59;1763936;81;21482;-55
2021/09/04 13:28:54;;;;;;;2.47;1.30;;;;;;;18.97;37.87;100481.69;1762393;81;21264;-55
2021/09/04 13:32:01;;;;;;;1.70;0.93;;;;;;;19.05;38.50;100486.95;1756025;81;21903;-56
2021/09/04 13:35:06;;;;;;;1.90;0.93;;;;;;;19.11;37.19;100489.33;1742773;79;21258;-55
2021/09/04 13:38:14;;;;;;;3.45;1.10;;;;;;;19.08;37.20;100494.81;1740066;81;21326;-54
2021/09/04 13:41:19;;;;;;;3.87;1.00;;;;;;;19.02;36.96;100495.73;1739625;82;21204;-55
2021/09/04 13:44:26;;;;;;;3.27;1.00;;;;;;;18.96;35.80;100506.33;1739972;82;21769;-55
2021/09/04 13:47:32;;;;;;;2.33;0.98;;;;;;;18.85;35.70;100497.92;1737558;82;21264;-54
2021/09/04 13:50:39;;;;;;;1.80;0.95;;;;;;;18.75;35.93;100499.81;1746659;81;21219;-55
2021/09/04 13:53:45;;;;;;;3.02;1.10;;;;;;;18.68;36.36;100501.77;1751411;81;21180;-55
2021/09/04 13:56:52;;;;;;;2.25;0.98;;;;;;;18.63;36.45;100504.38;1753242;79;22026;-56
2021/09/04 13:59:58;;;;;;;5.00;1.40;;;;;;;18.61;36.64;100507.06;1765744;81;21232;-57
2021/09/04 14:03:04;;;;;;;1.50;1.00;;;;;;;18.64;36.18;100507.48;1760000;80;21177;-56
2021/09/04 14:06:12;;;;;;;3.00;0.90;;;;;;;18.65;35.70;100503.62;1760882;81;21342;-55
2021/09/04 14:09:17;;;;;;;3.75;1.57;;;;;;;18.68;35.62;100504.55;1754133;79;21701;-55
2021/09/04 14:12:23;;;;;;;3.35;1.35;;;;;;;18.68;35.77;100504.55;1754083;80;21264;-56
2021/09/04 14:15:29;;;;;;;5.20;1.30;;;;;;;18.59;35.21;100512.84;1767583;79;21256;-57
2021/09/04 14:18:35;;;;;;;3.30;1.17;;;;;;;18.41;35.11;100511.36;1769703;81;21235;-56
2021/09/04 14:21:41;;;;;;;2.47;0.93;;;;;;;18.24;35.40;100518.48;1770204;80;21200;-55
2021/09/04 14:24:48;;;;;;;2.15;1.32;;;;;;;18.13;35.58;100512.25;1741629;81;21374;-55
2021/09/04 14:27:55;;;;;;;3.10;1.47;;;;;;;18.09;35.77;100511.53;1749504;81;21319;-56
2021/09/04 14:31:00;;;;;;;3.75;1.65;;;;;;;18.08;36.20;100511.20;1766352;80;21195;-55